Impacts METAR Board INFO
IDs:

KIAH - Houston/Bush Intl, TX, US

Updated at: 1238 UTC 18 Dec 2017
Potential Impact None Slight Moderate High
Time18/00Z 18/01Z 18/02Z 18/03Z 18/04Z 18/05Z 18/06Z 18/07Z 18/08Z 18/09Z 18/10Z 18/11Z 18/12Z
VIS10 10 10 7 7 7 7 8 8 8 10 10 10
CIG250 240 230 230 28 26 21 33 19 17 17 27 18
CoverOVCBKNBKNBKNOVCOVCOVCOVCOVCOVCOVCBKNOVC
FltCatVFRVFRVFRVFRMVFRMVFRMVFRVFRMVFRMVFRMVFRMVFRMVFR
WX--------------------------
WDir0602901003508050203500330350
WSpd5 4 3 3 3 4 3 4 3 3 0 5 6
WGst-- -- -- -- -- -- -- -- -- -- -- -- --
Raw hourly METARs
KIAH 172353Z VRB05KT 10SM OVC250 14/12 A3006 RMK AO2 SLP178 T01440122 10167 20122 55003
KIAH 180053Z 06004KT 10SM FEW010 FEW040 BKN240 13/12 A3007 RMK AO2 SLP185 T01330122
KIAH 180153Z 29003KT 10SM FEW035 BKN230 12/12 A3010 RMK AO2 SLP194 T01220117
KIAH 180253Z 01003KT 7SM FEW030 BKN230 11/11 A3011 RMK AO2 SLP196 T01110111 51018
KIAH 180353Z VRB03KT 7SM OVC028 13/12 A3012 RMK AO2 SLP200 T01330122
KIAH 180453Z 35004KT 7SM OVC026 13/12 A3012 RMK AO2 SLP200 T01330122
KIAH 180553Z 08003KT 7SM OVC021 13/12 A3013 RMK AO2 SLP202 T01330122 10144 20111 401670089 51006
KIAH 180653Z 05004KT 8SM SCT018 OVC033 13/13 A3012 RMK AO2 SLP201 T01330128
KIAH 180753Z 02003KT 8SM OVC019 13/13 A3012 RMK AO2 SLP200 T01330128
KIAH 180853Z 35003KT 8SM OVC017 14/13 A3012 RMK AO2 SLP200 T01390128 56001
KIAH 180953Z 00000KT 10SM OVC017 14/13 A3012 RMK AO2 SLP200 T01390128
KIAH 181053Z 33005KT 10SM SCT017 BKN027 BKN045 13/12 A3013 RMK AO2 SLP203 T01330122
KIAH 181153Z 35006KT 10SM OVC018 14/13 A3014 RMK AO2 SLP205 T01390128 10139 20133 53005